Kezdőlap
METAR-TAF:

METAR-TAF

Repülőterek :

Childress, Texas, Amerikai Egyesült Államok

földrajzi szélesség: 34-25-39N, földrajzi hosszúság: 100-17-00W, magasság: 595 m

Jelenlegi meteorológiai megfigyelések

A jelentés 55 perccel ezelõtt készült, 02:53 UTC
Déli szél 6 kt
Hőmérséklet 27°C
Páratartalom 58%
Légköri nyomás 1018 hPa
Látótávolság: 16.1 km
Derült ég

METAR: KCDS 220253Z AUTO 17006KT 10SM CLR 27/18 A3006 RMK AO2 SLP149 T02720183 55003

Idő: 22:48 (03:48 UTC)

Előrejelzés

A jelentés 4 órával és 28 perccel ezelõtt készült, 23:20 UTC
Az előrejelzés 22-én 00 óra UTC és 22-én 24 óra UTC között érvényes
Déli szél 11 kt
Látótávolság: 10 km
Kevés felhő 10000 lábon
22-én 1400 órától UTC szerint
Dél-délnyugati szél 15 kt
Látótávolság: 10 km
Kevés felhő 20000 lábon

TAF: KCDS 212320Z 2200/2224 17011KT P6SM FEW100 FM221400 21015KT P6SM FEW200

Meteorológiai megfigyelések és előrejelzések több, mint 4000 repülőtéren (METAR és TAF jelentéseket).

A térképen piros és sárga pontok jelzik az elérhető meteorológiai állomásokat.

Mozgassa az egeret a pont fölött, hogy megjelenjen az állomás neve.

Azután kattintson az időjárási megfigyelések és előrejelzések megtekintéséhez.

A térkép megváltoztatása: kattintson a fekete keresztel jelölt zöld gombra ráközelítéshez, a vonallal jelölt zöld gombra távolításhoz, vagy a zöld nyilakra a szomszédos térképek eléréséhez.


METAR-TAF: